createdAt,value
2018-02-16T00:00:57.399Z,4.66
2018-02-16T00:01:57.367Z,4.62
2018-02-16T00:02:57.349Z,4.63
2018-02-16T00:03:57.318Z,4.55
2018-02-16T00:04:57.289Z,4.60
2018-02-16T00:05:57.264Z,4.60
2018-02-16T00:06:57.234Z,4.58
2018-02-16T00:07:57.207Z,4.56
2018-02-16T00:08:57.180Z,4.48
2018-02-16T00:09:57.150Z,4.58
2018-02-16T00:10:57.124Z,4.55
2018-02-16T00:11:57.096Z,4.55
2018-02-16T00:12:57.065Z,4.59
2018-02-16T00:13:57.042Z,4.52
2018-02-16T00:14:57.012Z,4.45
2018-02-16T00:15:56.984Z,4.50
2018-02-16T00:16:56.965Z,4.48
2018-02-16T00:17:56.929Z,4.37
2018-02-16T00:18:56.896Z,4.38
2018-02-16T00:19:56.870Z,4.35
2018-02-16T00:20:56.846Z,4.40
2018-02-16T00:21:56.819Z,4.52
2018-02-16T00:22:56.788Z,4.40
2018-02-16T00:23:56.761Z,4.37
2018-02-16T00:24:56.735Z,4.44
2018-02-16T00:25:56.706Z,4.44
2018-02-16T00:26:56.681Z,4.38
2018-02-16T00:27:56.650Z,4.35
2018-02-16T00:28:56.625Z,4.31
2018-02-16T00:29:56.588Z,4.37
2018-02-16T00:30:56.568Z,4.31
2018-02-16T00:31:56.542Z,4.30
2018-02-16T00:32:56.511Z,4.20
2018-02-16T00:33:56.480Z,4.22
2018-02-16T00:34:56.458Z,4.34
2018-02-16T00:35:56.431Z,4.17
2018-02-16T00:36:56.399Z,4.20
2018-02-16T00:37:56.372Z,4.19
2018-02-16T00:38:56.345Z,4.16
2018-02-16T00:39:56.318Z,4.19
2018-02-16T00:40:56.287Z,4.19
2018-02-16T00:41:56.263Z,4.14
2018-02-16T00:42:56.226Z,4.20
2018-02-16T00:43:56.207Z,4.24
2018-02-16T00:44:56.176Z,4.12
2018-02-16T00:45:56.149Z,4.14
2018-02-16T00:46:56.121Z,4.06
2018-02-16T00:47:56.097Z,4.08
2018-02-16T00:48:56.063Z,4.08
2018-02-16T00:49:56.041Z,4.05
2018-02-16T00:50:56.008Z,4.05
2018-02-16T00:51:55.984Z,4.08
2018-02-16T00:52:55.952Z,4.06
2018-02-16T00:53:55.925Z,4.13
2018-02-16T00:54:55.914Z,4.02
2018-02-16T00:55:55.872Z,4.05
2018-02-16T00:56:55.843Z,4.02
2018-02-16T00:57:55.814Z,4.02
2018-02-16T00:58:55.787Z,4.04
2018-02-16T00:59:55.756Z,3.99
2018-02-16T01:00:55.735Z,4.04
2018-02-16T01:01:55.702Z,4.02
2018-02-16T01:02:55.678Z,3.91
2018-02-16T01:03:55.643Z,3.92
2018-02-16T01:04:55.620Z,3.95
2018-02-16T01:05:55.590Z,3.92
2018-02-16T01:06:55.564Z,3.94
2018-02-16T01:07:55.535Z,3.88
2018-02-16T01:08:55.512Z,3.88
2018-02-16T01:09:55.474Z,3.84
2018-02-16T01:10:55.454Z,3.91
2018-02-16T01:11:55.425Z,3.87
2018-02-16T01:12:55.392Z,3.81
2018-02-16T01:13:55.364Z,3.78
2018-02-16T01:14:55.339Z,3.77
2018-02-16T01:15:55.313Z,3.84
2018-02-16T01:16:55.281Z,3.80
2018-02-16T01:17:55.257Z,3.77
2018-02-16T01:18:55.229Z,3.77
2018-02-16T01:19:55.200Z,3.76
2018-02-16T01:20:55.172Z,3.68
2018-02-16T01:21:55.141Z,3.77
2018-02-16T01:22:55.118Z,3.70
2018-02-16T01:23:55.088Z,3.70
2018-02-16T01:24:55.060Z,3.78
2018-02-16T01:25:55.035Z,3.77
2018-02-16T01:26:55.005Z,3.62
2018-02-16T01:27:54.974Z,3.66
2018-02-16T01:28:54.951Z,3.60
2018-02-16T01:29:54.920Z,3.74
2018-02-16T01:30:54.888Z,3.66
2018-02-16T01:31:54.860Z,3.73
2018-02-16T01:32:54.837Z,3.68
2018-02-16T01:33:54.805Z,3.60
2018-02-16T01:34:54.774Z,3.58
2018-02-16T01:35:54.752Z,3.73
2018-02-16T01:36:54.720Z,3.62
2018-02-16T01:37:54.695Z,3.60
2018-02-16T01:38:54.664Z,3.59
2018-02-16T01:39:54.635Z,3.50
2018-02-16T01:40:54.613Z,3.45
2018-02-16T01:41:54.582Z,3.48
2018-02-16T01:42:54.555Z,3.44
2018-02-16T01:43:54.527Z,3.44
2018-02-16T01:44:54.499Z,3.47
2018-02-16T01:45:54.466Z,3.42
2018-02-16T01:46:54.446Z,3.45
2018-02-16T01:47:54.415Z,3.37
2018-02-16T01:48:54.385Z,3.36
2018-02-16T01:49:54.357Z,3.32
2018-02-16T01:50:54.331Z,3.37
2018-02-16T01:51:54.309Z,3.29
2018-02-16T01:52:54.274Z,3.28
2018-02-16T01:53:54.241Z,3.40
2018-02-16T01:54:54.220Z,3.40
2018-02-16T01:55:54.186Z,3.34
2018-02-16T01:56:54.159Z,3.50
2018-02-16T01:57:54.133Z,3.45
2018-02-16T01:58:54.103Z,3.45
2018-02-16T01:59:54.074Z,3.50
2018-02-16T02:00:54.053Z,3.44
2018-02-16T02:01:54.020Z,3.47
2018-02-16T02:02:53.992Z,3.48
2018-02-16T02:03:53.961Z,3.51
2018-02-16T02:04:53.938Z,3.51
2018-02-16T02:05:53.907Z,3.34
2018-02-16T02:06:53.882Z,3.36
2018-02-16T02:07:53.853Z,3.42
2018-02-16T02:08:53.822Z,3.28
2018-02-16T02:09:53.793Z,3.32
2018-02-16T02:10:53.784Z,3.26
2018-02-16T02:11:53.733Z,3.31
2018-02-16T02:12:53.711Z,3.25
2018-02-16T02:13:53.678Z,3.26
2018-02-16T02:14:53.657Z,3.25
2018-02-16T02:15:53.625Z,3.25
2018-02-16T02:16:53.598Z,3.25
2018-02-16T02:17:53.569Z,3.21
2018-02-16T02:18:53.543Z,3.18
2018-02-16T02:19:53.511Z,3.25
2018-02-16T02:20:53.489Z,3.23
2018-02-16T02:21:53.462Z,3.14
2018-02-16T02:22:53.427Z,3.16
2018-02-16T02:23:53.399Z,3.22
2018-02-16T02:24:53.372Z,3.31
2018-02-16T02:25:53.344Z,3.22
2018-02-16T02:26:53.315Z,3.32
2018-02-16T02:27:53.291Z,3.23
2018-02-16T02:28:53.257Z,3.23
2018-02-16T02:29:53.231Z,3.21
2018-02-16T02:30:53.241Z,3.18
2018-02-16T02:31:53.177Z,3.19
2018-02-16T02:32:53.145Z,3.26
2018-02-16T02:33:53.118Z,3.19
2018-02-16T02:34:53.088Z,3.26
2018-02-16T02:35:53.063Z,3.25
2018-02-16T02:36:53.031Z,3.25
2018-02-16T02:37:53.007Z,3.28
2018-02-16T02:38:52.977Z,3.31
2018-02-16T02:39:52.951Z,3.22
2018-02-16T02:40:52.915Z,3.28
2018-02-16T02:41:52.887Z,3.19
2018-02-16T02:42:52.865Z,3.28
2018-02-16T02:43:52.834Z,3.26
2018-02-16T02:44:52.805Z,3.34
2018-02-16T02:45:52.777Z,3.45
2018-02-16T02:46:52.751Z,3.34
2018-02-16T02:47:52.724Z,3.32
2018-02-16T02:48:52.691Z,3.28
2018-02-16T02:49:52.663Z,3.29
2018-02-16T02:50:52.636Z,3.32
2018-02-16T02:51:52.611Z,3.31
2018-02-16T02:52:52.579Z,3.32
2018-02-16T02:53:52.552Z,3.29
2018-02-16T02:54:52.524Z,3.29
2018-02-16T02:55:52.491Z,3.29
2018-02-16T02:56:52.467Z,3.32
2018-02-16T02:57:52.441Z,3.26
2018-02-16T02:58:52.406Z,3.32
2018-02-16T02:59:52.384Z,3.34
2018-02-16T03:00:52.357Z,3.45
2018-02-16T03:01:52.331Z,3.29
2018-02-16T03:02:52.298Z,3.28
2018-02-16T03:03:52.268Z,3.21
2018-02-16T03:04:52.246Z,3.26
2018-02-16T03:05:52.216Z,3.31
2018-02-16T03:06:52.186Z,3.31
2018-02-16T03:07:52.152Z,3.31
2018-02-16T03:08:52.137Z,3.36
2018-02-16T03:09:52.097Z,3.29
2018-02-16T03:10:52.071Z,3.42
2018-02-16T03:11:52.043Z,3.34
2018-02-16T03:12:52.020Z,3.32
2018-02-16T03:13:51.985Z,3.28
2018-02-16T03:14:51.960Z,3.42
2018-02-16T03:15:51.930Z,3.42
2018-02-16T03:16:51.904Z,3.28
2018-02-16T03:17:51.876Z,3.42
2018-02-16T03:18:51.844Z,3.40
2018-02-16T03:19:51.833Z,3.40
2018-02-16T03:20:51.788Z,3.36
2018-02-16T03:21:51.763Z,3.36
2018-02-16T03:22:51.732Z,3.37
2018-02-16T03:23:51.706Z,3.34
2018-02-16T03:24:51.676Z,3.31
2018-02-16T03:25:51.643Z,3.40
2018-02-16T03:26:51.617Z,3.34
2018-02-16T03:27:51.593Z,3.40
2018-02-16T03:28:51.564Z,3.37
2018-02-16T03:29:51.533Z,3.34
2018-02-16T03:30:51.512Z,3.34
2018-02-16T03:31:51.477Z,3.48
2018-02-16T03:32:51.451Z,3.34
2018-02-16T03:33:51.425Z,3.40
2018-02-16T03:34:51.392Z,3.36
2018-02-16T03:35:51.364Z,3.37
2018-02-16T03:36:51.344Z,3.45
2018-02-16T03:37:51.313Z,3.41
2018-02-16T03:38:51.280Z,3.36
2018-02-16T03:39:51.253Z,3.32
2018-02-16T03:40:51.229Z,3.28
2018-02-16T03:41:51.194Z,3.26
2018-02-16T03:42:51.169Z,3.42
2018-02-16T03:43:51.144Z,3.32
2018-02-16T03:44:51.109Z,3.31
2018-02-16T03:45:51.085Z,3.37
2018-02-16T03:46:51.054Z,3.34
2018-02-16T03:47:51.025Z,3.37
2018-02-16T03:48:51.002Z,3.42
2018-02-16T03:49:50.968Z,3.32
2018-02-16T03:50:50.946Z,3.47
2018-02-16T03:51:50.920Z,3.37
2018-02-16T03:52:50.885Z,3.31
2018-02-16T03:53:50.853Z,3.40
2018-02-16T03:54:50.832Z,3.32
2018-02-16T03:55:50.802Z,3.26
2018-02-16T03:56:50.774Z,3.28
2018-02-16T03:57:50.749Z,3.25
2018-02-16T03:58:50.713Z,3.28
2018-02-16T03:59:50.689Z,3.26
2018-02-16T04:00:50.661Z,3.29
2018-02-16T04:01:50.631Z,3.25
2018-02-16T04:02:50.606Z,3.32
2018-02-16T04:03:50.577Z,3.31
2018-02-16T04:04:50.548Z,3.36
2018-02-16T04:05:50.518Z,3.36
2018-02-16T04:06:50.489Z,3.37
2018-02-16T04:07:50.462Z,3.44
2018-02-16T04:08:50.436Z,3.34
2018-02-16T04:09:50.404Z,3.50
2018-02-16T04:10:50.380Z,3.45
2018-02-16T04:11:50.348Z,3.40
2018-02-16T04:12:50.322Z,3.50
2018-02-16T04:13:50.294Z,3.41
2018-02-16T04:14:50.266Z,3.50
2018-02-16T04:15:50.235Z,3.48
2018-02-16T04:16:50.211Z,3.50
2018-02-16T04:17:50.188Z,3.53
2018-02-16T04:18:50.149Z,3.55
2018-02-16T04:19:50.125Z,3.53
2018-02-16T04:20:50.094Z,3.50
2018-02-16T04:21:50.070Z,3.60
2018-02-16T04:22:50.036Z,3.59
2018-02-16T04:23:50.013Z,3.60
2018-02-16T04:24:49.984Z,3.48
2018-02-16T04:25:49.960Z,3.53
2018-02-16T04:26:49.925Z,3.51
2018-02-16T04:27:49.899Z,3.55
2018-02-16T04:28:49.867Z,3.45
2018-02-16T04:29:49.845Z,3.50
2018-02-16T04:30:49.814Z,3.50
2018-02-16T04:31:49.786Z,3.55
2018-02-16T04:32:49.755Z,3.62
2018-02-16T04:33:49.727Z,3.63
2018-02-16T04:34:49.701Z,3.65
2018-02-16T04:35:49.676Z,3.60
2018-02-16T04:36:49.647Z,3.63
2018-02-16T04:37:49.612Z,3.66
2018-02-16T04:38:49.592Z,3.56
2018-02-16T04:39:49.559Z,3.59
2018-02-16T04:40:49.531Z,3.59
2018-02-16T04:41:49.500Z,3.56
2018-02-16T04:42:49.476Z,3.58
2018-02-16T04:43:49.446Z,3.51
2018-02-16T04:44:49.421Z,3.58
2018-02-16T04:45:49.387Z,3.50
2018-02-16T04:46:49.361Z,3.47
2018-02-16T04:47:49.335Z,3.50
2018-02-16T04:48:49.306Z,3.50
2018-02-16T04:49:49.275Z,3.51
2018-02-16T04:50:49.252Z,3.45
2018-02-16T04:51:49.220Z,3.44
2018-02-16T04:52:49.194Z,3.47
2018-02-16T04:53:49.162Z,3.47
2018-02-16T04:54:49.135Z,3.60
2018-02-16T04:55:49.112Z,3.58
2018-02-16T04:56:49.076Z,3.53
2018-02-16T04:57:49.058Z,3.44
2018-02-16T04:58:49.025Z,3.47
2018-02-16T04:59:48.996Z,3.47
2018-02-16T05:00:48.964Z,3.48
2018-02-16T05:01:48.964Z,3.48
2018-02-16T05:02:49.233Z,3.47
2018-02-16T05:03:48.880Z,3.37
2018-02-16T05:04:48.853Z,3.29
2018-02-16T05:05:48.821Z,3.36
2018-02-16T05:06:48.798Z,3.31
2018-02-16T05:07:48.766Z,3.41
2018-02-16T05:08:48.770Z,3.40
2018-02-16T05:09:48.727Z,3.31
2018-02-16T05:10:48.746Z,3.44
2018-02-16T05:11:48.692Z,3.47
2018-02-16T05:12:48.627Z,3.42
2018-02-16T05:13:48.596Z,3.31
2018-02-16T05:14:48.575Z,3.40
2018-02-16T05:15:48.539Z,3.42
2018-02-16T05:16:48.517Z,3.44
2018-02-16T05:17:48.528Z,3.40
2018-02-16T05:18:48.492Z,3.29
2018-02-16T05:19:48.435Z,3.23
2018-02-16T05:20:48.398Z,3.29
2018-02-16T05:21:48.372Z,3.31
2018-02-16T05:22:48.340Z,3.23
2018-02-16T05:23:48.322Z,3.31
2018-02-16T05:24:48.285Z,3.29
2018-02-16T05:25:48.261Z,3.31
2018-02-16T05:26:48.227Z,3.34
2018-02-16T05:27:48.202Z,3.25
2018-02-16T05:28:48.174Z,3.23
2018-02-16T05:29:48.148Z,3.22
2018-02-16T05:30:48.111Z,3.19
2018-02-16T05:31:48.087Z,3.32
2018-02-16T05:32:48.060Z,3.19
2018-02-16T05:33:48.026Z,3.18
2018-02-16T05:34:48.005Z,3.22
2018-02-16T05:35:47.976Z,3.28
2018-02-16T05:36:47.943Z,3.22
2018-02-16T05:37:47.914Z,3.21
2018-02-16T05:38:47.889Z,3.25
2018-02-16T05:39:47.862Z,3.18
2018-02-16T05:40:47.831Z,3.34
2018-02-16T05:41:47.803Z,3.37
2018-02-16T05:42:47.777Z,3.25
2018-02-16T05:43:47.748Z,3.29
2018-02-16T05:44:47.717Z,3.28
2018-02-16T05:45:47.689Z,3.19
2018-02-16T05:46:47.661Z,3.25
2018-02-16T05:47:47.637Z,3.16
2018-02-16T05:48:47.602Z,3.21
2018-02-16T05:49:47.580Z,3.19
2018-02-16T05:50:47.545Z,3.16
2018-02-16T05:51:47.522Z,3.23
2018-02-16T05:52:47.493Z,3.28
2018-02-16T05:53:47.467Z,3.21
2018-02-16T05:54:47.439Z,3.22
2018-02-16T05:55:47.409Z,3.16
2018-02-16T05:56:47.377Z,3.14
2018-02-16T05:57:47.354Z,3.14
2018-02-16T05:58:47.318Z,3.11
2018-02-16T05:59:47.296Z,3.11
2018-02-16T06:00:47.268Z,3.13
2018-02-16T06:01:47.239Z,3.23
2018-02-16T06:02:47.210Z,3.25
2018-02-16T06:03:47.183Z,3.28
2018-02-16T06:04:47.150Z,3.21
2018-02-16T06:05:47.123Z,3.26
2018-02-16T06:06:47.099Z,3.28
2018-02-16T06:07:47.067Z,3.21
2018-02-16T06:08:47.062Z,3.29
2018-02-16T06:09:47.008Z,3.34
2018-02-16T06:10:46.984Z,3.25
2018-02-16T06:11:46.953Z,3.25
2018-02-16T06:12:46.929Z,3.26
2018-02-16T06:13:46.897Z,3.28
2018-02-16T06:14:46.872Z,3.25
2018-02-16T06:15:46.840Z,3.14
2018-02-16T06:16:46.815Z,3.28
2018-02-16T06:17:46.781Z,3.26
2018-02-16T06:18:46.758Z,3.26
2018-02-16T06:19:46.736Z,3.28
2018-02-16T06:20:46.705Z,3.16
2018-02-16T06:21:46.715Z,3.28
2018-02-16T06:22:46.642Z,3.29
2018-02-16T06:23:46.619Z,3.23
2018-02-16T06:24:46.590Z,3.19
2018-02-16T06:25:46.603Z,3.13
2018-02-16T06:26:46.532Z,3.11
2018-02-16T06:27:46.502Z,3.31
2018-02-16T06:28:46.481Z,3.22
2018-02-16T06:29:46.447Z,3.19
2018-02-16T06:30:46.418Z,3.19
2018-02-16T06:31:46.391Z,3.28
2018-02-16T06:32:46.363Z,3.26
2018-02-16T06:33:46.336Z,3.26
2018-02-16T06:34:46.306Z,3.22
2018-02-16T06:35:46.275Z,3.18
2018-02-16T06:36:46.251Z,3.25
2018-02-16T06:37:46.220Z,3.16
2018-02-16T06:38:46.195Z,3.21
2018-02-16T06:39:46.167Z,3.19
2018-02-16T06:40:46.132Z,3.14
2018-02-16T06:41:46.106Z,3.19
2018-02-16T06:42:46.081Z,3.26
2018-02-16T06:43:46.051Z,3.14
2018-02-16T06:44:46.022Z,3.22
2018-02-16T06:45:45.991Z,3.16
2018-02-16T06:46:45.969Z,3.32
2018-02-16T06:47:45.942Z,3.16
2018-02-16T06:48:45.945Z,3.25
2018-02-16T06:49:45.880Z,3.18
2018-02-16T06:50:45.855Z,3.26
2018-02-16T06:51:45.827Z,3.29
2018-02-16T06:52:45.795Z,3.19
2018-02-16T06:53:45.771Z,3.19
2018-02-16T06:54:45.737Z,3.19
2018-02-16T06:55:45.758Z,3.21
2018-02-16T06:56:45.688Z,3.16
2018-02-16T06:57:45.657Z,3.14
2018-02-16T06:58:45.629Z,3.13
2018-02-16T06:59:45.610Z,3.21
2018-02-16T07:00:45.571Z,3.19
2018-02-16T07:01:45.544Z,3.23
2018-02-16T07:02:45.512Z,3.14
2018-02-16T07:03:45.484Z,3.16
2018-02-16T07:04:45.464Z,3.04
2018-02-16T07:05:45.456Z,3.10
2018-02-16T07:06:45.427Z,3.08
2018-02-16T07:07:45.416Z,3.10
2018-02-16T07:08:45.354Z,3.10
2018-02-16T07:09:45.316Z,3.11
2018-02-16T07:10:45.289Z,3.00
2018-02-16T07:11:45.262Z,3.13
2018-02-16T07:12:45.230Z,3.10
2018-02-16T07:13:45.200Z,3.13
2018-02-16T07:14:45.175Z,3.18
2018-02-16T07:15:45.152Z,3.13
2018-02-16T07:16:45.121Z,3.13
2018-02-16T07:17:45.090Z,3.16
2018-02-16T07:18:45.066Z,3.18
2018-02-16T07:19:45.036Z,3.16
2018-02-16T07:20:45.003Z,3.11
2018-02-16T07:21:44.979Z,3.08
2018-02-16T07:22:44.946Z,3.13
2018-02-16T07:23:44.919Z,3.14
2018-02-16T07:24:44.901Z,3.19
2018-02-16T07:25:44.866Z,3.04
2018-02-16T07:26:44.833Z,3.13
2018-02-16T07:27:44.811Z,3.13
2018-02-16T07:28:44.792Z,3.08
2018-02-16T07:29:44.751Z,3.14
2018-02-16T07:30:44.720Z,3.14
2018-02-16T07:31:44.692Z,3.14
2018-02-16T07:32:44.667Z,3.10
2018-02-16T07:33:44.635Z,3.14
2018-02-16T07:34:44.608Z,3.10
2018-02-16T07:35:44.577Z,3.13
2018-02-16T07:36:44.552Z,3.19
2018-02-16T07:37:44.524Z,3.16
2018-02-16T07:38:44.501Z,3.16
2018-02-16T07:39:44.463Z,3.14
2018-02-16T07:40:44.439Z,3.31
2018-02-16T07:41:44.411Z,3.23
2018-02-16T07:42:44.405Z,3.29
2018-02-16T07:43:44.353Z,3.28
2018-02-16T07:44:44.326Z,3.29
2018-02-16T07:45:44.294Z,3.26
2018-02-16T07:46:44.269Z,3.16
2018-02-16T07:47:44.243Z,3.16
2018-02-16T07:48:44.218Z,3.18
2018-02-16T07:49:44.184Z,3.31
2018-02-16T07:50:44.155Z,3.31
2018-02-16T07:51:44.128Z,3.28
2018-02-16T07:52:44.139Z,3.26
2018-02-16T07:53:44.087Z,3.28
2018-02-16T07:54:44.056Z,3.29
2018-02-16T07:55:44.015Z,3.41
2018-02-16T07:56:43.986Z,3.41
2018-02-16T07:57:43.955Z,3.50
2018-02-16T07:58:43.934Z,3.48
2018-02-16T07:59:43.906Z,3.60
2018-02-16T08:00:43.873Z,3.55
2018-02-16T08:01:43.843Z,3.62
2018-02-16T08:02:43.815Z,3.63
2018-02-16T08:03:43.786Z,3.68
2018-02-16T08:04:43.761Z,3.76
2018-02-16T08:05:43.730Z,3.65
2018-02-16T08:06:43.706Z,3.66
2018-02-16T08:07:43.693Z,3.76
2018-02-16T08:08:43.652Z,3.74
2018-02-16T08:09:43.622Z,3.70
2018-02-16T08:10:43.601Z,3.77
2018-02-16T08:11:43.562Z,3.83
2018-02-16T08:12:43.533Z,3.81
2018-02-16T08:13:43.513Z,3.84
2018-02-16T08:14:43.473Z,3.88
2018-02-16T08:15:43.456Z,3.91
2018-02-16T08:16:43.421Z,3.87
2018-02-16T08:17:43.395Z,3.81
2018-02-16T08:18:43.370Z,3.91
2018-02-16T08:19:43.345Z,3.96
2018-02-16T08:20:43.307Z,3.98
2018-02-16T08:21:43.287Z,4.08
2018-02-16T08:22:43.252Z,4.05
2018-02-16T08:23:43.229Z,4.02
2018-02-16T08:24:43.194Z,4.02
2018-02-16T08:25:43.170Z,4.10
2018-02-16T08:26:43.139Z,4.12
2018-02-16T08:27:43.114Z,4.20
2018-02-16T08:28:43.089Z,4.14
2018-02-16T08:29:43.059Z,4.19
2018-02-16T08:30:43.029Z,4.16
2018-02-16T08:31:43.000Z,4.22
2018-02-16T08:32:42.976Z,4.19
2018-02-16T08:33:42.944Z,4.16
2018-02-16T08:34:42.914Z,4.23
2018-02-16T08:35:42.886Z,4.24
2018-02-16T08:36:42.862Z,4.16
2018-02-16T08:37:42.832Z,4.20
2018-02-16T08:38:42.817Z,4.14
2018-02-16T08:39:42.778Z,4.14
2018-02-16T08:40:42.750Z,4.12
2018-02-16T08:41:42.721Z,4.10
2018-02-16T08:42:42.696Z,4.04
2018-02-16T08:43:42.671Z,4.08
2018-02-16T08:44:42.640Z,4.08
2018-02-16T08:45:42.610Z,4.10
2018-02-16T08:46:42.584Z,4.05
2018-02-16T08:47:42.557Z,4.13
2018-02-16T08:48:42.528Z,4.06
2018-02-16T08:49:42.496Z,4.12
2018-02-16T08:50:42.475Z,4.08
2018-02-16T08:51:42.446Z,4.08
2018-02-16T08:52:42.413Z,4.22
2018-02-16T08:53:42.389Z,4.14
2018-02-16T08:54:42.363Z,4.05
2018-02-16T08:55:42.328Z,4.16
2018-02-16T08:56:42.318Z,4.13
2018-02-16T08:57:42.278Z,4.24
2018-02-16T08:58:42.245Z,4.16
2018-02-16T08:59:42.221Z,4.13
2018-02-16T09:00:42.186Z,4.26
2018-02-16T09:01:42.162Z,4.19
2018-02-16T09:02:42.134Z,4.20
2018-02-16T09:03:42.107Z,4.31
2018-02-16T09:04:42.165Z,4.35
2018-02-16T09:05:42.064Z,4.38
2018-02-16T09:06:42.022Z,4.34
2018-02-16T09:07:41.991Z,4.26
2018-02-16T09:08:41.980Z,4.22
2018-02-16T09:09:41.938Z,4.30
2018-02-16T09:10:41.910Z,4.37
2018-02-16T09:11:41.884Z,4.37
2018-02-16T09:12:41.857Z,4.38
2018-02-16T09:13:41.868Z,4.32
2018-02-16T09:14:41.809Z,4.41
2018-02-16T09:15:41.769Z,4.48
2018-02-16T09:16:41.750Z,4.45
2018-02-16T09:17:41.716Z,4.45
2018-02-16T09:18:41.690Z,4.38
2018-02-16T09:19:41.656Z,4.48
2018-02-16T09:20:41.636Z,4.52
2018-02-16T09:21:41.602Z,4.59
2018-02-16T09:22:41.576Z,4.48
2018-02-16T09:23:41.555Z,4.63
2018-02-16T09:24:41.518Z,4.63
2018-02-16T09:25:41.484Z,4.71
2018-02-16T09:26:41.463Z,4.75
2018-02-16T09:27:41.434Z,4.62
2018-02-16T09:28:41.414Z,4.60
2018-02-16T09:29:41.379Z,4.66
2018-02-16T09:30:41.351Z,4.59
2018-02-16T09:31:41.322Z,4.60
2018-02-16T09:32:41.296Z,4.67
2018-02-16T09:33:41.269Z,4.68
2018-02-16T09:34:41.235Z,4.63
2018-02-16T09:35:41.214Z,4.70
2018-02-16T09:36:41.181Z,4.63
2018-02-16T09:37:41.155Z,4.63
2018-02-16T09:38:41.123Z,4.60
2018-02-16T09:39:41.114Z,4.55
2018-02-16T09:40:41.079Z,4.58
2018-02-16T09:41:41.042Z,4.59
2018-02-16T09:42:41.017Z,4.59
2018-02-16T09:43:40.985Z,4.55
2018-02-16T09:44:40.961Z,4.52
2018-02-16T09:45:40.930Z,4.60
2018-02-16T09:46:40.907Z,4.53
2018-02-16T09:47:40.874Z,4.59
2018-02-16T09:48:40.850Z,4.60
2018-02-16T09:49:40.823Z,4.58
2018-02-16T09:50:40.795Z,4.53
2018-02-16T09:51:40.765Z,4.55
2018-02-16T09:52:40.739Z,4.62
2018-02-16T09:53:40.705Z,4.56
2018-02-16T09:54:40.684Z,4.62
2018-02-16T09:55:40.654Z,4.58
2018-02-16T09:56:40.624Z,4.62
2018-02-16T09:57:40.595Z,4.66
2018-02-16T09:58:40.574Z,4.59
2018-02-16T09:59:40.557Z,4.68
2018-02-16T10:00:40.513Z,4.70
2018-02-16T10:01:40.485Z,4.70
2018-02-16T10:02:40.459Z,4.73
2018-02-16T10:03:40.431Z,4.87
2018-02-16T10:04:40.403Z,4.92
2018-02-16T10:05:40.383Z,5.10
2018-02-16T10:06:40.347Z,5.15
2018-02-16T10:07:40.325Z,5.26
2018-02-16T10:08:40.296Z,5.26
2018-02-16T10:09:40.267Z,5.32
2018-02-16T10:10:40.231Z,5.50
2018-02-16T10:11:40.207Z,5.51
2018-02-16T10:12:40.181Z,5.59
2018-02-16T10:13:40.153Z,5.64
2018-02-16T10:14:40.123Z,5.64
2018-02-16T10:15:40.094Z,5.57
2018-02-16T10:16:40.069Z,5.51
2018-02-16T10:17:40.044Z,5.56
2018-02-16T10:18:40.019Z,5.64
2018-02-16T10:19:39.985Z,5.53
2018-02-16T10:20:39.960Z,5.46
2018-02-16T10:21:39.946Z,5.43
2018-02-16T10:22:39.904Z,5.46
2018-02-16T10:23:39.875Z,5.43
2018-02-16T10:24:39.854Z,5.41
2018-02-16T10:25:39.825Z,5.35
2018-02-16T10:26:39.796Z,5.39
2018-02-16T10:27:39.766Z,5.39
2018-02-16T10:28:39.744Z,5.36
2018-02-16T10:29:39.711Z,5.28
2018-02-16T10:30:39.680Z,5.33
2018-02-16T10:31:39.654Z,5.32
2018-02-16T10:32:39.629Z,5.32
2018-02-16T10:33:39.601Z,5.38
2018-02-16T10:34:39.575Z,5.41
2018-02-16T10:35:39.542Z,5.43
2018-02-16T10:36:39.522Z,5.38
2018-02-16T10:37:39.494Z,5.33
2018-02-16T10:38:39.465Z,5.36
2018-02-16T10:39:39.437Z,5.38
2018-02-16T10:40:39.407Z,5.36
2018-02-16T10:41:39.378Z,5.29
2018-02-16T10:42:39.350Z,5.33
2018-02-16T10:43:39.325Z,5.26
2018-02-16T10:44:39.296Z,5.35
2018-02-16T10:45:39.273Z,5.43
2018-02-16T10:46:39.239Z,5.33
2018-02-16T10:47:39.212Z,5.39
2018-02-16T10:48:39.194Z,5.47
2018-02-16T10:49:39.160Z,5.53
2018-02-16T10:50:39.131Z,5.62
2018-02-16T10:51:39.103Z,5.61
2018-02-16T10:52:39.079Z,5.61
2018-02-16T10:53:39.047Z,5.57
2018-02-16T10:54:39.022Z,5.57
2018-02-16T10:55:38.995Z,5.65
2018-02-16T10:56:38.968Z,5.66
2018-02-16T10:57:38.935Z,5.64
2018-02-16T10:58:38.920Z,5.59
2018-02-16T10:59:38.881Z,5.62
2018-02-16T11:00:38.856Z,5.61
2018-02-16T11:01:38.829Z,5.62
2018-02-16T11:02:38.799Z,5.61
2018-02-16T11:03:38.774Z,5.66
2018-02-16T11:04:38.747Z,5.80
2018-02-16T11:05:38.721Z,5.79
2018-02-16T11:06:38.689Z,5.93
2018-02-16T11:07:38.758Z,5.86
2018-02-16T11:08:38.640Z,5.86
2018-02-16T11:09:38.610Z,6.08
2018-02-16T11:10:38.580Z,6.09
2018-02-16T11:11:38.553Z,6.17
2018-02-16T11:12:38.531Z,6.22
2018-02-16T11:13:38.501Z,6.24
2018-02-16T11:14:38.474Z,6.31
2018-02-16T11:15:38.445Z,6.36
2018-02-16T11:16:38.420Z,6.51
2018-02-16T11:17:38.392Z,6.54
2018-02-16T11:18:38.366Z,6.46
2018-02-16T11:19:38.335Z,6.46
2018-02-16T11:20:38.314Z,6.48
2018-02-16T11:21:38.283Z,6.38
2018-02-16T11:22:38.256Z,6.44
2018-02-16T11:23:38.228Z,6.39
2018-02-16T11:24:38.204Z,6.22
2018-02-16T11:25:38.172Z,6.24
2018-02-16T11:26:38.150Z,6.22
2018-02-16T11:27:38.123Z,6.20
2018-02-16T11:28:38.096Z,6.20
2018-02-16T11:29:38.064Z,6.24
2018-02-16T11:30:38.041Z,6.22
2018-02-16T11:31:38.014Z,6.16
2018-02-16T11:32:37.984Z,6.14
2018-02-16T11:33:37.954Z,6.09
2018-02-16T11:34:37.933Z,6.11
2018-02-16T11:35:37.904Z,6.20
2018-02-16T11:36:37.877Z,6.16
2018-02-16T11:37:37.847Z,6.22
2018-02-16T11:38:37.827Z,6.19
2018-02-16T11:39:37.797Z,6.27
2018-02-16T11:40:37.767Z,6.20
2018-02-16T11:41:37.743Z,6.26
2018-02-16T11:42:37.711Z,6.33
2018-02-16T11:43:37.688Z,6.14
2018-02-16T11:44:37.657Z,6.19
2018-02-16T11:45:37.632Z,6.17
2018-02-16T11:46:37.603Z,6.22
2018-02-16T11:47:37.580Z,6.30
2018-02-16T11:48:37.552Z,6.41
2018-02-16T11:49:37.524Z,6.49
2018-02-16T11:50:37.494Z,6.49
2018-02-16T11:51:37.470Z,6.69
2018-02-16T11:52:37.442Z,6.66
2018-02-16T11:53:37.415Z,6.75
2018-02-16T11:54:37.386Z,6.77
2018-02-16T11:55:37.363Z,6.77
2018-02-16T11:56:37.333Z,6.72
2018-02-16T11:57:37.304Z,6.75
2018-02-16T11:58:37.285Z,6.79
2018-02-16T11:59:37.251Z,6.60
2018-02-16T12:00:37.228Z,6.60
2018-02-16T12:01:37.213Z,6.52
2018-02-16T12:02:37.172Z,6.45
2018-02-16T12:03:37.145Z,6.42
2018-02-16T12:04:37.117Z,6.35
2018-02-16T12:05:37.089Z,6.33
2018-02-16T12:06:37.064Z,6.33
2018-02-16T12:07:37.033Z,6.36
2018-02-16T12:08:37.010Z,6.31
2018-02-16T12:09:36.979Z,6.33
2018-02-16T12:10:36.955Z,6.27
2018-02-16T12:11:36.925Z,6.24
2018-02-16T12:12:36.901Z,6.24
2018-02-16T12:13:36.873Z,6.16
2018-02-16T12:14:36.844Z,6.22
2018-02-16T12:15:36.820Z,6.16
2018-02-16T12:16:36.791Z,6.12
2018-02-16T12:17:36.763Z,6.20
2018-02-16T12:18:36.741Z,6.24
2018-02-16T12:19:36.711Z,6.17
2018-02-16T12:20:36.684Z,6.19
2018-02-16T12:21:36.656Z,6.22
2018-02-16T12:22:36.627Z,6.17
2018-02-16T12:23:36.608Z,6.26
2018-02-16T12:24:36.572Z,6.17
2018-02-16T12:25:36.547Z,6.26
2018-02-16T12:26:36.514Z,6.26
2018-02-16T12:27:36.491Z,6.30
2018-02-16T12:28:36.466Z,6.33
2018-02-16T12:29:36.439Z,6.38
2018-02-16T12:30:36.410Z,6.33
2018-02-16T12:31:36.381Z,6.42
2018-02-16T12:32:36.360Z,6.48
2018-02-16T12:33:36.324Z,6.46
2018-02-16T12:34:36.303Z,6.48
2018-02-16T12:35:36.273Z,6.56
2018-02-16T12:36:36.247Z,6.49
2018-02-16T12:37:36.226Z,6.59
2018-02-16T12:38:36.194Z,6.74
2018-02-16T12:39:36.165Z,6.72
2018-02-16T12:40:36.140Z,6.81
2018-02-16T12:41:36.134Z,6.75
2018-02-16T12:42:36.083Z,6.69
2018-02-16T12:43:36.056Z,6.77
2018-02-16T12:44:36.028Z,6.74
2018-02-16T12:45:35.997Z,6.92
2018-02-16T12:46:35.974Z,6.89
2018-02-16T12:47:35.947Z,6.92
2018-02-16T12:48:35.922Z,7.06
2018-02-16T12:49:35.889Z,7.05
2018-02-16T12:50:35.864Z,7.05
2018-02-16T12:51:35.833Z,7.05
2018-02-16T12:52:35.813Z,7.05
2018-02-16T12:53:35.781Z,6.97
2018-02-16T12:54:35.754Z,7.06
2018-02-16T12:55:35.728Z,7.07
2018-02-16T12:56:35.702Z,7.11
2018-02-16T12:57:35.675Z,7.06
2018-02-16T12:58:35.665Z,7.15
2018-02-16T12:59:35.620Z,7.20
2018-02-16T13:00:35.592Z,7.32
2018-02-16T13:01:35.567Z,7.18
2018-02-16T13:02:35.537Z,7.31
2018-02-16T13:03:35.511Z,7.21
2018-02-16T13:04:35.490Z,7.14
2018-02-16T13:05:35.456Z,7.17
2018-02-16T13:06:35.432Z,7.24
2018-02-16T13:07:35.405Z,7.25
2018-02-16T13:08:35.385Z,7.25
2018-02-16T13:09:35.352Z,7.28
2018-02-16T13:10:35.325Z,7.18
2018-02-16T13:11:35.295Z,7.28
2018-02-16T13:12:35.269Z,7.36
2018-02-16T13:13:35.240Z,7.32
2018-02-16T13:14:35.212Z,7.42
2018-02-16T13:15:35.190Z,7.48
2018-02-16T13:16:35.182Z,7.42
2018-02-16T13:17:35.133Z,7.50
2018-02-16T13:18:35.111Z,7.40